createdAt,value
2019-03-21T00:01:20.070Z,13.73
2019-03-21T00:03:50.653Z,14.47
2019-03-21T00:06:19.284Z,14.33
2019-03-21T00:08:48.451Z,13.03
2019-03-21T00:11:55.176Z,13.53
2019-03-21T00:14:29.453Z,13.87
2019-03-21T00:16:57.985Z,13.93
2019-03-21T00:19:26.553Z,14.63
2019-03-21T00:21:55.189Z,15.50
2019-03-21T00:24:23.828Z,15.13
2019-03-21T00:26:52.389Z,15.37
2019-03-21T00:29:21.003Z,15.10
2019-03-21T00:31:49.632Z,17.50
2019-03-21T00:34:18.134Z,17.63
2019-03-21T00:36:46.696Z,18.47
2019-03-21T00:39:15.190Z,17.43
2019-03-21T00:41:43.829Z,16.40
2019-03-21T00:44:18.180Z,17.20
2019-03-21T00:46:42.652Z,16.07
2019-03-21T00:49:11.293Z,15.87
2019-03-21T00:51:39.964Z,16.57
2019-03-21T00:54:08.603Z,16.23
2019-03-21T00:56:37.173Z,16.03
2019-03-21T00:59:05.823Z,15.53
2019-03-21T01:01:34.388Z,17.17
2019-03-21T01:04:02.968Z,19.30
2019-03-21T01:06:31.458Z,17.00
2019-03-21T01:09:00.123Z,16.23
2019-03-21T01:11:28.753Z,16.10
2019-03-21T01:13:57.432Z,16.83
2019-03-21T01:16:25.993Z,16.33
2019-03-21T01:18:54.676Z,16.37
2019-03-21T01:21:23.244Z,17.40
2019-03-21T01:23:51.882Z,16.27
2019-03-21T01:26:20.416Z,17.97
2019-03-21T01:28:48.950Z,17.47
2019-03-21T01:31:17.526Z,16.80
2019-03-21T01:33:46.064Z,18.80
2019-03-21T01:36:14.701Z,17.63
2019-03-21T01:38:43.236Z,17.00
2019-03-21T01:41:17.723Z,18.43
2019-03-21T01:43:46.294Z,16.57
2019-03-21T01:46:25.953Z,18.70
2019-03-21T01:48:57.580Z,17.90
2019-03-21T01:51:26.263Z,19.03
2019-03-21T01:53:55.594Z,19.00
2019-03-21T01:56:24.827Z,19.43
2019-03-21T01:58:53.433Z,19.03
2019-03-21T02:01:21.991Z,19.50
2019-03-21T02:03:50.663Z,22.60
2019-03-21T02:06:19.227Z,21.63
2019-03-21T02:08:47.907Z,21.30
2019-03-21T02:11:16.512Z,18.90
2019-03-21T02:13:45.091Z,19.20
2019-03-21T02:16:13.762Z,18.40
2019-03-21T02:18:42.381Z,19.57
2019-03-21T02:21:10.999Z,20.50
2019-03-21T02:23:39.639Z,20.63
2019-03-21T02:26:08.323Z,21.93
2019-03-21T02:28:36.993Z,22.07
2019-03-21T02:31:05.680Z,20.37
2019-03-21T02:33:42.736Z,22.20
2019-03-21T02:36:12.874Z,24.07
2019-03-21T02:38:41.486Z,22.03
2019-03-21T02:41:16.996Z,22.73
2019-03-21T02:43:45.556Z,23.17
2019-03-21T02:46:14.190Z,22.83
2019-03-21T02:48:42.749Z,23.67
2019-03-21T02:51:11.292Z,23.27
2019-03-21T02:53:39.865Z,22.43
2019-03-21T02:56:11.595Z,23.80
2019-03-21T02:58:40.083Z,24.73
2019-03-21T03:01:08.719Z,23.63
2019-03-21T03:03:37.321Z,24.37
2019-03-21T03:06:06.018Z,24.40
2019-03-21T03:08:34.596Z,22.43
2019-03-21T03:11:18.231Z,23.23
2019-03-21T03:13:49.079Z,24.03
2019-03-21T03:16:17.708Z,23.80
2019-03-21T03:18:46.337Z,23.73
2019-03-21T03:21:14.942Z,23.33
2019-03-21T03:23:43.615Z,23.17
2019-03-21T03:26:12.254Z,23.93
2019-03-21T03:28:45.574Z,23.50
2019-03-21T03:31:14.190Z,24.23
2019-03-21T03:33:42.781Z,28.13
2019-03-21T03:36:12.435Z,27.23
2019-03-21T03:38:41.104Z,25.40
2019-03-21T03:41:12.537Z,23.53
2019-03-21T03:43:41.112Z,24.30
2019-03-21T03:46:09.658Z,23.27
2019-03-21T03:48:38.341Z,22.13
2019-03-21T03:51:06.969Z,22.37
2019-03-21T03:53:35.546Z,22.23
2019-03-21T03:56:04.592Z,20.93
2019-03-21T03:58:42.098Z,19.43
2019-03-21T04:01:10.774Z,19.40
2019-03-21T04:03:39.406Z,19.43
2019-03-21T04:06:08.178Z,17.70
2019-03-21T04:08:36.866Z,19.03
2019-03-21T04:11:05.535Z,19.07
2019-03-21T04:13:34.101Z,18.60
2019-03-21T04:16:02.712Z,18.80
2019-03-21T04:18:31.198Z,18.47
2019-03-21T04:21:02.928Z,18.73
2019-03-21T04:23:31.533Z,20.63
2019-03-21T04:26:26.361Z,21.83
2019-03-21T04:28:54.917Z,20.40
2019-03-21T04:31:23.547Z,22.10
2019-03-21T04:33:54.940Z,22.23
2019-03-21T04:36:23.507Z,23.20
2019-03-21T04:38:52.126Z,23.23
2019-03-21T04:41:20.690Z,24.17
2019-03-21T04:43:49.288Z,25.70
2019-03-21T04:46:18.035Z,25.47
2019-03-21T04:48:46.647Z,23.27
2019-03-21T04:51:15.217Z,23.30
2019-03-21T04:53:43.768Z,23.10
2019-03-21T04:56:12.377Z,24.77
2019-03-21T04:58:40.880Z,26.83
2019-03-21T05:01:09.553Z,27.27
2019-03-21T05:03:38.084Z,27.23
2019-03-21T05:06:06.716Z,26.27
2019-03-21T05:08:35.330Z,26.10
2019-03-21T05:11:03.952Z,26.93
2019-03-21T05:13:32.438Z,26.53
2019-03-21T05:16:01.041Z,27.80
2019-03-21T05:18:35.598Z,30.73
2019-03-21T05:21:07.040Z,31.90
2019-03-21T05:23:35.605Z,34.10
2019-03-21T05:26:04.377Z,38.20
2019-03-21T05:28:32.986Z,39.07
2019-03-21T05:31:19.977Z,49.13
2019-03-21T05:33:48.550Z,47.23
2019-03-21T05:36:17.157Z,62.67
2019-03-21T05:38:45.751Z,63.40
2019-03-21T05:41:14.400Z,63.33
2019-03-21T05:43:58.183Z,61.63
2019-03-21T05:46:27.345Z,59.83
2019-03-21T05:48:56.494Z,56.67
2019-03-21T05:51:25.357Z,56.20
2019-03-21T05:53:54.097Z,58.83
2019-03-21T05:56:22.844Z,55.90
2019-03-21T05:58:51.563Z,43.87
2019-03-21T06:01:20.226Z,37.03
2019-03-21T06:03:55.838Z,35.33
2019-03-21T06:06:36.627Z,37.27
2019-03-21T06:09:11.102Z,37.07
2019-03-21T06:11:44.612Z,36.53
2019-03-21T06:14:13.530Z,30.80
2019-03-21T06:16:42.351Z,29.30
2019-03-21T06:19:16.532Z,31.57
2019-03-21T06:21:50.850Z,32.90
2019-03-21T06:24:40.634Z,34.40
2019-03-21T06:27:27.031Z,27.27
2019-03-21T06:29:58.870Z,22.20
2019-03-21T06:32:28.735Z,22.60
2019-03-21T06:34:57.857Z,21.17
2019-03-21T06:37:28.900Z,24.83
2019-03-21T06:40:01.690Z,20.50
2019-03-21T06:42:32.203Z,19.63
2019-03-21T06:45:01.406Z,22.77
2019-03-21T06:47:33.526Z,19.10
2019-03-21T06:50:02.892Z,17.67
2019-03-21T06:52:31.569Z,14.57
2019-03-21T06:55:01.184Z,16.43
2019-03-21T06:57:30.611Z,16.37
2019-03-21T06:59:59.696Z,20.20
2019-03-21T07:02:29.198Z,20.50
2019-03-21T07:04:58.367Z,15.70
2019-03-21T07:07:31.827Z,17.00
2019-03-21T07:10:03.102Z,16.57
2019-03-21T07:12:33.939Z,17.17
2019-03-21T07:15:08.081Z,16.53
2019-03-21T07:17:38.833Z,16.63
2019-03-21T07:20:10.368Z,15.67
2019-03-21T07:22:39.567Z,16.67
2019-03-21T07:25:13.037Z,16.27
2019-03-21T07:27:42.574Z,17.17
2019-03-21T07:30:14.055Z,16.97
2019-03-21T07:32:43.212Z,16.60
2019-03-21T07:35:14.457Z,16.40
2019-03-21T07:37:43.802Z,17.13
2019-03-21T07:40:17.800Z,16.63
2019-03-21T07:42:48.204Z,16.80
2019-03-21T07:45:17.452Z,16.93
2019-03-21T07:47:46.316Z,16.80
2019-03-21T07:50:18.478Z,15.27
2019-03-21T07:52:47.160Z,15.27
2019-03-21T07:55:15.881Z,14.90
2019-03-21T07:57:44.663Z,14.10
2019-03-21T08:00:18.130Z,14.93
2019-03-21T08:02:46.964Z,14.07
2019-03-21T08:05:15.985Z,13.40
2019-03-21T08:07:44.542Z,14.37
2019-03-21T08:10:14.198Z,14.13
2019-03-21T08:12:42.980Z,12.70
2019-03-21T08:15:15.990Z,13.43
2019-03-21T08:17:44.629Z,12.50
2019-03-21T08:20:14.739Z,12.80
2019-03-21T08:22:43.525Z,15.67
2019-03-21T08:25:13.740Z,14.57
2019-03-21T08:27:42.529Z,13.63
2019-03-21T08:30:32.478Z,13.57
2019-03-21T08:33:03.773Z,13.30
2019-03-21T08:35:32.441Z,13.53
2019-03-21T08:38:01.069Z,14.77
2019-03-21T08:40:32.584Z,14.43
2019-03-21T08:43:04.255Z,13.30
2019-03-21T08:45:32.959Z,13.93
2019-03-21T08:48:01.787Z,15.23
2019-03-21T08:50:30.583Z,14.30
2019-03-21T08:52:59.253Z,14.43
2019-03-21T08:55:27.986Z,13.30
2019-03-21T08:57:56.772Z,13.10
2019-03-21T09:00:33.725Z,13.22
2019-03-21T09:02:57.835Z,12.78
2019-03-21T09:05:26.727Z,13.48
2019-03-21T09:08:01.190Z,13.10
2019-03-21T09:10:29.900Z,12.60
2019-03-21T09:12:58.659Z,14.20
2019-03-21T09:15:27.388Z,14.20
2019-03-21T09:17:56.296Z,14.13
2019-03-21T09:20:25.106Z,14.33
2019-03-21T09:22:53.587Z,13.83
2019-03-21T09:25:22.303Z,13.90
2019-03-21T09:28:01.961Z,14.23
2019-03-21T09:30:21.368Z,14.13
2019-03-21T09:32:50.193Z,14.93
2019-03-21T09:35:20.456Z,13.83
2019-03-21T09:37:49.185Z,13.80
2019-03-21T09:40:17.995Z,13.10
2019-03-21T09:42:49.662Z,14.25
2019-03-21T09:45:18.420Z,13.72
2019-03-21T09:47:47.091Z,14.80
2019-03-21T09:50:24.402Z,14.63
2019-03-21T09:52:52.970Z,13.93
2019-03-21T09:55:21.546Z,13.85
2019-03-21T09:57:50.092Z,13.22
2019-03-21T10:00:24.347Z,13.72
2019-03-21T10:02:52.859Z,14.75
2019-03-21T10:05:21.547Z,13.98
2019-03-21T10:07:50.093Z,14.25
2019-03-21T10:10:27.118Z,15.60
2019-03-21T10:12:55.752Z,15.38
2019-03-21T10:15:24.298Z,14.47
2019-03-21T10:17:55.984Z,14.15
2019-03-21T10:20:24.671Z,13.75
2019-03-21T10:22:53.154Z,14.13
2019-03-21T10:25:21.733Z,14.38
2019-03-21T10:27:50.274Z,14.60
2019-03-21T10:30:33.799Z,14.13
2019-03-21T10:33:02.789Z,14.23
2019-03-21T10:35:32.630Z,13.60
2019-03-21T10:38:01.614Z,14.03
2019-03-21T10:40:35.146Z,13.83
2019-03-21T10:43:10.662Z,14.03
2019-03-21T10:45:40.045Z,13.62
2019-03-21T10:48:08.821Z,13.62
2019-03-21T10:50:39.227Z,13.90
2019-03-21T10:53:08.378Z,13.00
2019-03-21T10:55:37.475Z,13.98
2019-03-21T10:58:07.039Z,15.93
2019-03-21T11:00:35.850Z,14.00
2019-03-21T11:03:05.114Z,13.80
2019-03-21T11:05:33.736Z,13.20
2019-03-21T11:08:03.843Z,13.50
2019-03-21T11:10:32.625Z,13.53
2019-03-21T11:13:01.313Z,14.15
2019-03-21T11:15:30.094Z,13.85
2019-03-21T11:17:59.016Z,13.50
2019-03-21T11:20:30.149Z,13.65
2019-03-21T11:22:58.795Z,10.45
2019-03-21T11:25:27.497Z,10.85
2019-03-21T11:27:56.318Z,10.48
2019-03-21T11:30:38.639Z,11.00
2019-03-21T11:33:07.313Z,10.25
2019-03-21T11:35:36.149Z,9.08
2019-03-21T11:38:05.629Z,9.48
2019-03-21T11:40:34.273Z,10.10
2019-03-21T11:43:04.834Z,10.32
2019-03-21T11:45:35.211Z,8.30
2019-03-21T11:48:04.089Z,8.30
2019-03-21T11:50:33.545Z,8.58
2019-03-21T11:53:03.061Z,8.98
2019-03-21T11:55:31.663Z,9.85
2019-03-21T11:58:11.155Z,9.18
2019-03-21T12:00:43.909Z,9.58
2019-03-21T12:03:15.167Z,9.58
2019-03-21T12:05:43.966Z,9.90
2019-03-21T12:08:14.153Z,10.05
2019-03-21T12:10:44.339Z,10.38
2019-03-21T12:13:17.974Z,9.10
2019-03-21T12:15:46.991Z,8.53
2019-03-21T12:18:16.172Z,8.40
2019-03-21T12:20:50.405Z,8.58
2019-03-21T12:23:19.401Z,9.43
2019-03-21T12:25:48.242Z,8.28
2019-03-21T12:28:16.985Z,8.33
2019-03-21T12:30:45.843Z,8.68
2019-03-21T12:33:16.072Z,8.48
2019-03-21T12:35:44.778Z,9.18
2019-03-21T12:38:13.909Z,9.03
2019-03-21T12:40:43.004Z,8.70
2019-03-21T12:43:11.833Z,9.10
2019-03-21T12:45:41.932Z,10.53
2019-03-21T12:48:10.813Z,9.75
2019-03-21T12:50:39.547Z,9.10
2019-03-21T12:53:09.910Z,8.80
2019-03-21T12:55:38.643Z,9.60
2019-03-21T12:58:07.505Z,10.30
2019-03-21T13:00:41.483Z,10.32
2019-03-21T13:03:10.159Z,11.45
2019-03-21T13:05:38.798Z,11.12
2019-03-21T13:08:07.556Z,12.43
2019-03-21T13:10:36.288Z,11.80
2019-03-21T13:13:05.563Z,13.55
2019-03-21T13:15:34.308Z,12.82
2019-03-21T13:18:02.879Z,12.87
2019-03-21T13:20:31.959Z,12.28
2019-03-21T13:23:03.577Z,11.83
2019-03-21T13:25:32.333Z,13.47
2019-03-21T13:28:01.102Z,13.68
2019-03-21T13:30:29.813Z,11.90
2019-03-21T13:32:58.400Z,13.00
2019-03-21T13:35:32.761Z,13.60
2019-03-21T13:37:57.659Z,13.70
2019-03-21T13:40:26.412Z,13.43
2019-03-21T13:42:58.026Z,13.37
2019-03-21T13:45:29.883Z,13.70
2019-03-21T13:47:58.595Z,13.10
2019-03-21T13:50:27.331Z,12.80
2019-03-21T13:53:04.700Z,15.10
2019-03-21T13:55:27.927Z,15.07
2019-03-21T13:57:56.692Z,14.93
2019-03-21T14:00:25.511Z,13.57
2019-03-21T14:02:54.214Z,14.57
2019-03-21T14:05:23.090Z,15.60
2019-03-21T14:07:51.805Z,16.10
2019-03-21T14:10:23.299Z,16.10
2019-03-21T14:12:52.013Z,14.30
2019-03-21T14:15:20.771Z,15.40
2019-03-21T14:17:49.613Z,14.93
2019-03-21T14:20:18.393Z,14.47
2019-03-21T14:22:47.600Z,13.83
2019-03-21T14:25:16.237Z,13.70
2019-03-21T14:27:53.433Z,13.53
2019-03-21T14:30:22.052Z,12.83
2019-03-21T14:32:50.699Z,14.17
2019-03-21T14:35:19.334Z,14.10
2019-03-21T14:37:47.942Z,13.30
2019-03-21T14:40:17.628Z,14.23
2019-03-21T14:42:46.500Z,12.20
2019-03-21T14:45:16.670Z,12.60
2019-03-21T14:47:45.340Z,12.03
2019-03-21T14:50:16.259Z,11.47
2019-03-21T14:52:44.889Z,11.37
2019-03-21T14:55:17.561Z,12.37
2019-03-21T14:57:46.128Z,11.30
2019-03-21T15:00:20.069Z,11.53
2019-03-21T15:02:48.628Z,11.40
2019-03-21T15:05:17.717Z,12.30
2019-03-21T15:07:46.349Z,11.77
2019-03-21T15:10:18.659Z,10.80
2019-03-21T15:12:47.294Z,11.57
2019-03-21T15:15:19.468Z,11.70
2019-03-21T15:17:48.112Z,17.47
2019-03-21T15:20:17.490Z,11.90
2019-03-21T15:22:46.130Z,12.30
2019-03-21T15:25:14.818Z,12.00
2019-03-21T15:27:43.457Z,12.20
2019-03-21T15:30:20.037Z,12.50
2019-03-21T15:32:48.746Z,12.30
2019-03-21T15:35:18.247Z,13.17
2019-03-21T15:37:46.924Z,12.43
2019-03-21T15:40:21.845Z,12.63
2019-03-21T15:42:50.379Z,15.20
2019-03-21T15:45:23.743Z,15.97
2019-03-21T15:47:49.444Z,17.37
2019-03-21T15:50:38.486Z,12.50
2019-03-21T15:53:07.467Z,14.57
2019-03-21T15:55:36.139Z,13.90
2019-03-21T15:58:04.886Z,14.03
2019-03-21T16:00:36.202Z,15.20
2019-03-21T16:03:09.601Z,16.30
2019-03-21T16:05:38.886Z,16.17
2019-03-21T16:08:09.113Z,16.33
2019-03-21T16:10:38.450Z,16.40
2019-03-21T16:13:07.177Z,15.17
2019-03-21T16:15:35.743Z,17.10
2019-03-21T16:18:04.783Z,20.97
2019-03-21T16:20:33.394Z,18.47
2019-03-21T16:23:02.138Z,17.33
2019-03-21T16:25:30.747Z,17.40
2019-03-21T16:27:59.314Z,17.33
2019-03-21T16:30:27.994Z,17.13
2019-03-21T16:32:56.632Z,16.90
2019-03-21T16:35:25.200Z,16.00
2019-03-21T16:37:53.831Z,17.80
2019-03-21T16:40:25.290Z,17.87
2019-03-21T16:42:53.968Z,19.50
2019-03-21T16:45:22.582Z,17.83
2019-03-21T16:47:51.140Z,18.37
2019-03-21T16:50:19.710Z,18.30
2019-03-21T16:52:48.322Z,19.77
2019-03-21T16:55:16.876Z,20.53
2019-03-21T16:57:45.543Z,20.13
2019-03-21T17:00:17.835Z,21.33
2019-03-21T17:02:46.855Z,19.00
2019-03-21T17:05:15.495Z,22.00
2019-03-21T17:07:44.233Z,22.00
2019-03-21T17:10:16.730Z,20.90
2019-03-21T17:12:45.384Z,21.10
2019-03-21T17:15:14.381Z,20.30
2019-03-21T17:17:42.958Z,21.73
2019-03-21T17:20:13.459Z,19.77
2019-03-21T17:22:42.099Z,25.43
2019-03-21T17:25:11.962Z,26.40
2019-03-21T17:27:40.643Z,27.97
2019-03-21T17:30:11.851Z,27.57
2019-03-21T17:32:42.099Z,31.30
2019-03-21T17:35:11.972Z,25.60
2019-03-21T17:37:43.843Z,28.37
2019-03-21T17:40:16.206Z,25.70
2019-03-21T17:42:47.727Z,26.40
2019-03-21T17:45:20.968Z,28.43
2019-03-21T17:47:49.600Z,25.67
2019-03-21T17:50:19.180Z,22.97
2019-03-21T17:52:47.921Z,22.40
2019-03-21T17:55:16.571Z,20.70
2019-03-21T17:57:48.170Z,21.87
2019-03-21T18:00:27.327Z,21.67
2019-03-21T18:02:59.136Z,19.63
2019-03-21T18:05:27.754Z,18.10
2019-03-21T18:07:56.417Z,17.43
2019-03-21T18:10:27.680Z,18.23
2019-03-21T18:12:56.360Z,17.47
2019-03-21T18:15:25.197Z,15.97
2019-03-21T18:17:53.776Z,17.40
2019-03-21T18:20:22.471Z,17.27
2019-03-21T18:22:51.163Z,16.73
2019-03-21T18:25:19.800Z,16.50
2019-03-21T18:27:48.801Z,17.13
2019-03-21T18:30:17.566Z,17.03
2019-03-21T18:32:46.196Z,18.43
2019-03-21T18:35:14.983Z,16.60
2019-03-21T18:37:44.028Z,18.73
2019-03-21T18:40:13.014Z,17.40
2019-03-21T18:42:41.657Z,16.37
2019-03-21T18:45:13.285Z,17.43
2019-03-21T18:47:41.922Z,16.40
2019-03-21T18:50:13.475Z,16.37
2019-03-21T18:52:42.031Z,15.93
2019-03-21T18:55:10.820Z,16.60
2019-03-21T18:57:39.461Z,16.43
2019-03-21T19:00:11.573Z,16.10
2019-03-21T19:02:42.894Z,15.30
2019-03-21T19:05:11.846Z,15.40
2019-03-21T19:07:40.463Z,16.93
2019-03-21T19:10:12.005Z,16.60
2019-03-21T19:12:40.686Z,17.47
2019-03-21T19:15:14.908Z,18.47
2019-03-21T19:17:43.558Z,18.37
2019-03-21T19:20:14.604Z,19.00
2019-03-21T19:22:43.243Z,19.13
2019-03-21T19:25:18.324Z,20.57
2019-03-21T19:27:42.957Z,20.30
2019-03-21T19:30:21.554Z,17.97
2019-03-21T19:32:50.190Z,17.20
2019-03-21T19:35:18.826Z,16.90
2019-03-21T19:37:47.559Z,17.07
2019-03-21T19:40:20.263Z,16.27
2019-03-21T19:42:48.968Z,20.10
2019-03-21T19:45:21.013Z,16.53
2019-03-21T19:47:49.669Z,13.90
2019-03-21T19:50:19.638Z,14.47
2019-03-21T19:52:48.464Z,15.23
2019-03-21T19:55:30.354Z,14.47
2019-03-21T19:57:50.761Z,12.67
2019-03-21T20:00:23.806Z,12.00
2019-03-21T20:02:52.457Z,12.80
2019-03-21T20:05:21.150Z,11.50
2019-03-21T20:07:49.837Z,11.57
2019-03-21T20:10:20.470Z,10.23
2019-03-21T20:12:49.334Z,11.13
2019-03-21T20:15:18.771Z,11.40
2019-03-21T20:17:47.453Z,11.97
2019-03-21T20:20:17.952Z,11.13
2019-03-21T20:22:46.680Z,11.50
2019-03-21T20:25:15.571Z,12.30
2019-03-21T20:27:44.473Z,14.33
2019-03-21T20:30:20.516Z,14.80
2019-03-21T20:32:49.157Z,13.40
2019-03-21T20:35:17.894Z,14.53
2019-03-21T20:37:46.583Z,14.13
2019-03-21T20:40:17.181Z,14.37
2019-03-21T20:42:45.739Z,15.23
2019-03-21T20:45:19.447Z,15.33
2019-03-21T20:47:48.095Z,15.10
2019-03-21T20:50:18.148Z,14.17
2019-03-21T20:52:46.706Z,12.27
2019-03-21T20:55:15.392Z,11.33
2019-03-21T20:57:43.957Z,12.83
2019-03-21T21:00:21.704Z,13.47
2019-03-21T21:02:50.801Z,13.47
2019-03-21T21:05:19.433Z,13.43
2019-03-21T21:07:48.068Z,12.90
2019-03-21T21:10:17.159Z,13.87
2019-03-21T21:12:45.797Z,13.23
2019-03-21T21:15:15.932Z,12.17
2019-03-21T21:17:44.715Z,12.60
2019-03-21T21:20:15.955Z,12.90
2019-03-21T21:22:47.383Z,14.37
2019-03-21T21:25:16.049Z,12.40
2019-03-21T21:27:49.748Z,12.43
2019-03-21T21:30:20.710Z,13.83
2019-03-21T21:32:49.284Z,13.33
2019-03-21T21:35:18.058Z,12.37
2019-03-21T21:37:47.341Z,13.77
2019-03-21T21:40:17.187Z,14.03
2019-03-21T21:42:46.060Z,13.63
2019-03-21T21:45:17.308Z,14.70
2019-03-21T21:47:46.323Z,13.73
2019-03-21T21:50:18.578Z,15.23
2019-03-21T21:52:47.276Z,14.93
2019-03-21T21:55:15.919Z,15.53
2019-03-21T21:57:44.559Z,16.93
2019-03-21T22:00:16.213Z,17.83
2019-03-21T22:02:44.860Z,17.23
2019-03-21T22:05:13.778Z,17.37
2019-03-21T22:07:42.403Z,17.70
2019-03-21T22:10:11.086Z,17.93
2019-03-21T22:12:39.731Z,17.70
2019-03-21T22:15:13.588Z,16.87
2019-03-21T22:17:42.262Z,17.30
2019-03-21T22:20:13.065Z,17.13
2019-03-21T22:22:41.716Z,17.67
2019-03-21T22:25:10.649Z,18.47
2019-03-21T22:27:39.333Z,18.03
2019-03-21T22:30:15.706Z,17.63
2019-03-21T22:32:44.388Z,17.33
2019-03-21T22:35:13.029Z,17.90
2019-03-21T22:37:41.680Z,19.80
2019-03-21T22:40:12.531Z,17.97
2019-03-21T22:42:41.116Z,17.17
2019-03-21T22:45:12.184Z,17.80
2019-03-21T22:47:40.758Z,17.67
2019-03-21T22:50:11.734Z,17.80
2019-03-21T22:52:40.379Z,16.83
2019-03-21T22:55:09.056Z,16.83
2019-03-21T22:57:37.680Z,16.87
2019-03-21T23:00:22.247Z,17.80
2019-03-21T23:02:50.882Z,16.20
2019-03-21T23:05:20.862Z,17.27
2019-03-21T23:07:49.424Z,17.43
2019-03-21T23:10:18.199Z,20.20
2019-03-21T23:12:46.758Z,24.87
2019-03-21T23:15:15.535Z,25.40
2019-03-21T23:17:44.262Z,24.83
2019-03-21T23:20:15.132Z,29.30
2019-03-21T23:22:43.810Z,32.00
2019-03-21T23:25:16.276Z,35.20
2019-03-21T23:27:44.013Z,37.00
2019-03-21T23:30:19.728Z,33.07
2019-03-21T23:32:48.337Z,27.60
2019-03-21T23:35:17.009Z,20.23
2019-03-21T23:37:45.649Z,19.23
2019-03-21T23:40:15.624Z,25.33
2019-03-21T23:42:44.458Z,26.80
2019-03-21T23:45:19.853Z,26.00
2019-03-21T23:47:47.724Z,24.47
2019-03-21T23:50:20.066Z,23.53
2019-03-21T23:52:48.751Z,22.07
2019-03-21T23:55:17.301Z,21.10
2019-03-21T23:57:45.868Z,20.00
